METAR AND TAF INFORMATION
METAR FOR EDDC
ADDS - METARS form results

(0436 UTC 26 August 2019)
Data provider http://aviationweather.gov/metar/data/
 
METAR text: EDDC 260420Z VRB02KT CAVOK 18/17 Q1020 NOSIG
Conditions at: EDDC (DRESDEN/KLOTZSCH, DE) observed 0420 UTC 26 August 2019
Temperature: 18.0°C (64°F)
Dewpoint: 17.0°C (63°F) [RH = 94%]
Pressure (altimeter): 30.12 inches Hg (1020.0 mb)
Winds: variable direction winds at 2 MPH (2 knots; 1.0 m/s)
Visibility: 6 or more miles (10+ km)
Ceiling: ceiling and visibility are OK
Clouds: unknown
Weather: no significant weather observed at this time

METAR text: EDDC 260350Z VRB01KT CAVOK 19/17 Q1020 NOSIG
Conditions at: EDDC (DRESDEN/KLOTZSCH, DE) observed 0350 UTC 26 August 2019
Temperature: 19.0°C (66°F)
Dewpoint: 17.0°C (63°F) [RH = 88%]
Pressure (altimeter): 30.12 inches Hg (1020.0 mb)
Winds: variable direction winds at 1 MPH (1 knots; 0.5 m/s)
Visibility: 6 or more miles (10+ km)
Ceiling: ceiling and visibility are OK
Clouds: unknown
Weather: no significant weather observed at this time

Forecast for: EDDC (DRESDEN/KLOTZSCH, DE)
Text: TAF EDDC 252300Z 2600/2624 14004KT CAVOK
Forecast period: 0000 to 0800 UTC 26 August 2019
Forecast type: FROM: standard forecast or significant change
Winds: from the SE (140 degrees) at 5 MPH (4 knots; 2.1 m/s)
Visibility: 6 or more miles 10+ km)
Ceiling: unknown
Clouds: missing
Weather: NSW  (no significant weather)
Text: BECMG 2608/2610 08008KT
Forecast period: 0800 UTC 26 August 2019 to 0000 UTC 27 August 2019
Forecast type: BECOMING: Conditions expected to become as follows by 1000 UTC 26 August 2019
Winds: from the E (80 degrees) at 9 MPH (8 knots; 4.1 m/s)
Visibility: 6 or more miles 10+ km)
Ceiling: unknown
Clouds: missing
Weather: NSW  (no significant weather)
Text: PROB30
Forecast period: 1200 to 1800 UTC 26 August 2019
Forecast type: TEMPORARY: The following changes expected for less than half the time period
Visibility: missing
Ceiling: 5000 feet AGL
Clouds: broken clouds at 5000 feet AGL
Weather: TSRA  (rain associated with thunderstorm(s))

 AIRPORT MAP

 RUNWAY INFORMATION
Runway 04 Runway length 8228 ft Runway width 167 ft
Runway elevation 755 ft Runway displaced threshold 0 ft Runway heading 41
Runway 22 Runway length 8228 ft Runway width 167 ft
Runway elevation 703 ft Runway displaced threshold 0 ft Runway heading 221

 AIRPORT FREQUENCIES
Type AFIS Name MUNCHEN IN Frequency 125.8 MHZ
Type APP Name MUNCHEN RA Frequency 125.625 MHZ
Type ATIS Name ATIS Frequency 118.875 MHZ
Type GND Name GND Frequency 121.9 MHZ
Type RMP Name APRON Frequency 121.75 MHZ
Type TWR Name TWR Frequency 119.7 MHZ

 AIRPORT NEAR NAVIGATION AIDS
Type DME Name Dresden Frequency 115400 KHZ
Type VOR-DME Name Dresden Frequency 114350 KHZ



Powered by Virtual Airlines Manager [v2.6.2]